sensor_id;sensor_type;location;lat;lon;timestamp;pressure;altitude;pressure_sealevel;temperature;humidity
19594;BME280;9944;48.240;16.478;2024-03-08T00:02:23;100183.50;;;3.11;72.13
19594;BME280;9944;48.240;16.478;2024-03-08T00:06:27;100176.50;;;3.10;72.24
19594;BME280;9944;48.240;16.478;2024-03-08T00:10:31;100183.63;;;3.14;72.46
19594;BME280;9944;48.240;16.478;2024-03-08T00:19:27;100168.03;;;3.17;72.87
19594;BME280;9944;48.240;16.478;2024-03-08T00:23:32;100184.59;;;3.18;72.80
19594;BME280;9944;48.240;16.478;2024-03-08T00:27:36;100176.66;;;3.15;72.86
19594;BME280;9944;48.240;16.478;2024-03-08T00:31:40;100178.47;;;3.17;72.85
19594;BME280;9944;48.240;16.478;2024-03-08T00:35:43;100167.97;;;3.14;72.59
19594;BME280;9944;48.240;16.478;2024-03-08T00:39:48;100178.28;;;3.11;72.53
19594;BME280;9944;48.240;16.478;2024-03-08T00:43:52;100177.31;;;3.07;72.51
19594;BME280;9944;48.240;16.478;2024-03-08T00:47:55;100174.88;;;3.12;72.80
19594;BME280;9944;48.240;16.478;2024-03-08T00:51:59;100171.28;;;3.10;72.79
19594;BME280;9944;48.240;16.478;2024-03-08T00:56:04;100159.94;;;3.08;73.12
19594;BME280;9944;48.240;16.478;2024-03-08T01:00:08;100157.44;;;3.11;73.26
19594;BME280;9944;48.240;16.478;2024-03-08T01:04:14;100166.00;;;3.07;73.47
19594;BME280;9944;48.240;16.478;2024-03-08T01:08:18;100164.28;;;3.07;73.88
19594;BME280;9944;48.240;16.478;2024-03-08T01:12:23;100155.53;;;3.05;73.71
19594;BME280;9944;48.240;16.478;2024-03-08T01:16:26;100164.13;;;3.03;73.77
19594;BME280;9944;48.240;16.478;2024-03-08T01:20:29;100162.16;;;2.96;73.87
19594;BME280;9944;48.240;16.478;2024-03-08T01:24:33;100159.38;;;2.91;73.87
19594;BME280;9944;48.240;16.478;2024-03-08T01:28:38;100154.91;;;2.87;74.14
19594;BME280;9944;48.240;16.478;2024-03-08T01:32:41;100146.88;;;2.81;74.16
19594;BME280;9944;48.240;16.478;2024-03-08T01:36:45;100149.34;;;2.76;74.37
19594;BME280;9944;48.240;16.478;2024-03-08T01:40:49;100145.69;;;2.71;74.58
19594;BME280;9944;48.240;16.478;2024-03-08T01:44:54;100145.47;;;2.65;74.85
19594;BME280;9944;48.240;16.478;2024-03-08T01:48:59;100134.75;;;2.56;74.88
19594;BME280;9944;48.240;16.478;2024-03-08T01:53:03;100140.84;;;2.56;75.36
19594;BME280;9944;48.240;16.478;2024-03-08T01:57:08;100138.16;;;2.55;75.57
19594;BME280;9944;48.240;16.478;2024-03-08T02:01:13;100139.84;;;2.52;75.72
19594;BME280;9944;48.240;16.478;2024-03-08T02:05:17;100133.94;;;2.57;75.98
19594;BME280;9944;48.240;16.478;2024-03-08T02:09:21;100140.19;;;2.62;76.21
19594;BME280;9944;48.240;16.478;2024-03-08T02:13:26;100133.28;;;2.64;76.43
19594;BME280;9944;48.240;16.478;2024-03-08T02:17:31;100125.53;;;2.65;76.28
19594;BME280;9944;48.240;16.478;2024-03-08T02:21:37;100134.97;;;2.62;76.45
19594;BME280;9944;48.240;16.478;2024-03-08T02:25:40;100133.28;;;2.64;76.61
19594;BME280;9944;48.240;16.478;2024-03-08T02:29:45;100133.19;;;2.61;76.60
19594;BME280;9944;48.240;16.478;2024-03-08T02:33:49;100126.09;;;2.57;76.63
19594;BME280;9944;48.240;16.478;2024-03-08T02:37:54;100129.66;;;2.59;76.94
19594;BME280;9944;48.240;16.478;2024-03-08T02:41:57;100132.44;;;2.65;77.40
19594;BME280;9944;48.240;16.478;2024-03-08T02:46:00;100131.88;;;2.74;77.70
19594;BME280;9944;48.240;16.478;2024-03-08T02:50:04;100131.91;;;2.75;77.11
19594;BME280;9944;48.240;16.478;2024-03-08T02:54:11;100131.63;;;2.66;76.83
19594;BME280;9944;48.240;16.478;2024-03-08T02:58:14;100125.56;;;2.67;76.92
19594;BME280;9944;48.240;16.478;2024-03-08T03:02:18;100131.50;;;2.63;76.91
19594;BME280;9944;48.240;16.478;2024-03-08T03:06:21;100122.03;;;2.65;77.26
19594;BME280;9944;48.240;16.478;2024-03-08T03:10:26;100117.84;;;2.70;77.17
19594;BME280;9944;48.240;16.478;2024-03-08T03:14:29;100121.19;;;2.66;77.39
19594;BME280;9944;48.240;16.478;2024-03-08T03:18:32;100121.31;;;2.69;77.59
19594;BME280;9944;48.240;16.478;2024-03-08T03:22:36;100119.81;;;2.77;77.97
19594;BME280;9944;48.240;16.478;2024-03-08T03:26:42;100121.50;;;2.75;77.55
19594;BME280;9944;48.240;16.478;2024-03-08T03:30:45;100115.19;;;2.68;77.37
19594;BME280;9944;48.240;16.478;2024-03-08T03:34:50;100117.84;;;2.70;77.76
19594;BME280;9944;48.240;16.478;2024-03-08T03:38:54;100117.84;;;2.70;77.47
19594;BME280;9944;48.240;16.478;2024-03-08T03:43:08;100117.66;;;2.64;77.19
19594;BME280;9944;48.240;16.478;2024-03-08T03:47:13;100115.00;;;2.62;77.09
19594;BME280;9944;48.240;16.478;2024-03-08T03:51:17;100112.34;;;2.61;77.25
19594;BME280;9944;48.240;16.478;2024-03-08T03:55:21;100112.22;;;2.58;77.50
19594;BME280;9944;48.240;16.478;2024-03-08T03:59:26;100122.75;;;2.61;77.54
19594;BME280;9944;48.240;16.478;2024-03-08T04:03:29;100117.38;;;2.56;77.55
19594;BME280;9944;48.240;16.478;2024-03-08T04:07:33;100110.38;;;2.53;77.77
19594;BME280;9944;48.240;16.478;2024-03-08T04:11:37;100114.06;;;2.60;77.99
19594;BME280;9944;48.240;16.478;2024-03-08T04:15:41;100114.06;;;2.60;78.11
19594;BME280;9944;48.240;16.478;2024-03-08T04:19:50;100106.13;;;2.57;77.87
19594;BME280;9944;48.240;16.478;2024-03-08T04:23:54;100107.88;;;2.57;78.14
19594;BME280;9944;48.240;16.478;2024-03-08T04:27:57;100100.13;;;2.60;78.42
19594;BME280;9944;48.240;16.478;2024-03-08T04:32:03;100103.66;;;2.60;78.60
19594;BME280;9944;48.240;16.478;2024-03-08T04:36:07;100105.56;;;2.66;78.70
19594;BME280;9944;48.240;16.478;2024-03-08T04:40:16;100106.50;;;2.68;78.52
19594;BME280;9944;48.240;16.478;2024-03-08T04:44:20;100106.53;;;2.69;78.50
19594;BME280;9944;48.240;16.478;2024-03-08T04:48:25;100104.00;;;2.71;78.45
19594;BME280;9944;48.240;16.478;2024-03-08T04:52:29;100105.66;;;2.69;78.50
19594;BME280;9944;48.240;16.478;2024-03-08T04:56:33;100104.00;;;2.71;78.36
19594;BME280;9944;48.240;16.478;2024-03-08T05:00:36;100108.16;;;2.66;78.48
19594;BME280;9944;48.240;16.478;2024-03-08T05:04:41;100105.56;;;2.66;78.49
19594;BME280;9944;48.240;16.478;2024-03-08T05:08:45;100102.22;;;2.70;78.65
19594;BME280;9944;48.240;16.478;2024-03-08T05:12:48;100102.41;;;2.76;78.82
19594;BME280;9944;48.240;16.478;2024-03-08T05:16:55;100100.84;;;2.81;78.92
19594;BME280;9944;48.240;16.478;2024-03-08T05:21:01;100093.97;;;2.83;78.86
19594;BME280;9944;48.240;16.478;2024-03-08T05:25:06;100098.19;;;2.80;78.39
19594;BME280;9944;48.240;16.478;2024-03-08T05:29:11;100100.63;;;2.75;78.66
19594;BME280;9944;48.240;16.478;2024-03-08T05:33:14;100108.31;;;2.70;78.53
19594;BME280;9944;48.240;16.478;2024-03-08T05:37:19;100104.97;;;2.75;78.67
19594;BME280;9944;48.240;16.478;2024-03-08T05:41:22;100107.75;;;2.79;78.79
19594;BME280;9944;48.240;16.478;2024-03-08T05:45:26;100114.81;;;2.83;78.74
19594;BME280;9944;48.240;16.478;2024-03-08T05:49:29;100119.16;;;2.83;78.44
19594;BME280;9944;48.240;16.478;2024-03-08T05:53:33;100114.81;;;2.83;78.34
19594;BME280;9944;48.240;16.478;2024-03-08T05:57:37;100122.59;;;2.82;78.33
19594;BME280;9944;48.240;16.478;2024-03-08T06:06:34;100120.84;;;2.82;78.45
19594;BME280;9944;48.240;16.478;2024-03-08T06:10:41;100126.13;;;2.84;78.68
19594;BME280;9944;48.240;16.478;2024-03-08T06:14:44;100120.84;;;2.82;78.30
19594;BME280;9944;48.240;16.478;2024-03-08T06:18:48;100123.28;;;2.76;78.10
19594;BME280;9944;48.240;16.478;2024-03-08T06:22:51;100122.41;;;2.76;78.55
19594;BME280;9944;48.240;16.478;2024-03-08T06:26:56;100123.28;;;2.76;78.54
19594;BME280;9944;48.240;16.478;2024-03-08T06:30:59;100131.09;;;2.76;78.55
19594;BME280;9944;48.240;16.478;2024-03-08T06:35:03;100132.03;;;2.78;78.61
19594;BME280;9944;48.240;16.478;2024-03-08T06:39:07;100127.84;;;2.83;78.80
19594;BME280;9944;48.240;16.478;2024-03-08T06:43:13;100131.50;;;2.88;78.75
19594;BME280;9944;48.240;16.478;2024-03-08T06:47:17;100130.84;;;2.96;78.63
19594;BME280;9944;48.240;16.478;2024-03-08T06:51:22;100129.28;;;3.01;78.76
19594;BME280;9944;48.240;16.478;2024-03-08T06:55:25;100125.94;;;3.05;78.68
19594;BME280;9944;48.240;16.478;2024-03-08T06:59:30;100122.59;;;3.09;78.51
19594;BME280;9944;48.240;16.478;2024-03-08T07:03:34;100126.19;;;3.13;78.37
19594;BME280;9944;48.240;16.478;2024-03-08T07:07:37;100126.25;;;3.14;78.53
19594;BME280;9944;48.240;16.478;2024-03-08T07:11:43;100122.78;;;3.15;78.48
19594;BME280;9944;48.240;16.478;2024-03-08T07:15:48;100116.78;;;3.18;78.41
19594;BME280;9944;48.240;16.478;2024-03-08T07:19:51;100124.72;;;3.22;78.69
19594;BME280;9944;48.240;16.478;2024-03-08T07:23:56;100121.28;;;3.23;78.47
19594;BME280;9944;48.240;16.478;2024-03-08T07:28:16;100123.25;;;3.31;78.56
19594;BME280;9944;48.240;16.478;2024-03-08T07:32:22;100122.59;;;3.38;78.62
19594;BME280;9944;48.240;16.478;2024-03-08T07:36:27;100113.19;;;3.43;78.53
19594;BME280;9944;48.240;16.478;2024-03-08T07:40:31;100118.50;;;3.46;78.37
19594;BME280;9944;48.240;16.478;2024-03-08T07:44:34;100128.84;;;3.43;78.06
19594;BME280;9944;48.240;16.478;2024-03-08T07:48:38;100122.75;;;3.42;77.93
19594;BME280;9944;48.240;16.478;2024-03-08T07:52:43;100126.19;;;3.41;78.14
19594;BME280;9944;48.240;16.478;2024-03-08T07:56:46;100134.06;;;3.43;78.10
19594;BME280;9944;48.240;16.478;2024-03-08T08:00:49;100127.25;;;3.48;78.46
19594;BME280;9944;48.240;16.478;2024-03-08T08:04:54;100134.53;;;3.58;78.28
19594;BME280;9944;48.240;16.478;2024-03-08T08:09:01;100131.97;;;3.60;78.38
19594;BME280;9944;48.240;16.478;2024-03-08T08:13:04;100125.81;;;3.58;77.95
19594;BME280;9944;48.240;16.478;2024-03-08T08:17:07;100131.09;;;3.59;78.16
19594;BME280;9944;48.240;16.478;2024-03-08T08:21:13;100131.19;;;3.62;78.08
19594;BME280;9944;48.240;16.478;2024-03-08T08:25:16;100124.19;;;3.61;78.15
19594;BME280;9944;48.240;16.478;2024-03-08T08:29:22;100127.69;;;3.62;78.12
19594;BME280;9944;48.240;16.478;2024-03-08T08:33:26;100130.34;;;3.63;78.05
19594;BME280;9944;48.240;16.478;2024-03-08T08:37:31;100128.59;;;3.64;78.45
19594;BME280;9944;48.240;16.478;2024-03-08T08:41:35;100134.78;;;3.68;78.53
19594;BME280;9944;48.240;16.478;2024-03-08T08:45:39;100124.44;;;3.71;78.45
19594;BME280;9944;48.240;16.478;2024-03-08T08:49:42;100131.56;;;3.75;78.19
19594;BME280;9944;48.240;16.478;2024-03-08T08:53:48;100129.75;;;3.74;78.32
19594;BME280;9944;48.240;16.478;2024-03-08T08:57:51;100135.91;;;3.76;78.64
19594;BME280;9944;48.240;16.478;2024-03-08T09:01:55;100125.56;;;3.79;78.50
19594;BME280;9944;48.240;16.478;2024-03-08T09:05:58;100125.75;;;3.85;78.85
19594;BME280;9944;48.240;16.478;2024-03-08T09:10:03;100123.22;;;3.88;78.50
19594;BME280;9944;48.240;16.478;2024-03-08T09:14:10;100121.53;;;3.90;78.46
19594;BME280;9944;48.240;16.478;2024-03-08T09:18:14;100132.91;;;3.92;78.50
19594;BME280;9944;48.240;16.478;2024-03-08T09:22:17;100120.91;;;3.97;78.52
19594;BME280;9944;48.240;16.478;2024-03-08T09:26:22;100121.88;;;4.01;78.86
19594;BME280;9944;48.240;16.478;2024-03-08T09:30:30;100123.72;;;4.05;78.73
19594;BME280;9944;48.240;16.478;2024-03-08T09:34:34;100125.56;;;4.09;78.77
19594;BME280;9944;48.240;16.478;2024-03-08T09:38:39;100124.91;;;4.16;78.90
19594;BME280;9944;48.240;16.478;2024-03-08T09:42:48;100124.28;;;4.25;78.67
19594;BME280;9944;48.240;16.478;2024-03-08T09:46:51;100119.13;;;4.28;78.46
19594;BME280;9944;48.240;16.478;2024-03-08T09:50:55;100111.53;;;4.37;78.53
19594;BME280;9944;48.240;16.478;2024-03-08T09:54:59;100114.38;;;4.47;78.82
19594;BME280;9944;48.240;16.478;2024-03-08T09:59:04;100115.56;;;4.58;78.63
19594;BME280;9944;48.240;16.478;2024-03-08T10:03:43;100111.34;;;4.63;78.17
19594;BME280;9944;48.240;16.478;2024-03-08T10:07:46;100112.25;;;4.65;78.27
19594;BME280;9944;48.240;16.478;2024-03-08T10:11:49;100100.19;;;4.70;78.19
19594;BME280;9944;48.240;16.478;2024-03-08T10:15:54;100106.47;;;4.78;77.91
19594;BME280;9944;48.240;16.478;2024-03-08T10:19:57;100101.34;;;4.83;77.61
19594;BME280;9944;48.240;16.478;2024-03-08T10:24:02;100105.78;;;4.86;77.51
19594;BME280;9944;48.240;16.478;2024-03-08T10:28:06;100098.03;;;4.90;77.47
19594;BME280;9944;48.240;16.478;2024-03-08T10:32:11;100099.94;;;4.97;77.65
19594;BME280;9944;48.240;16.478;2024-03-08T10:36:15;100094.91;;;5.05;77.43
19594;BME280;9944;48.240;16.478;2024-03-08T10:40:22;100097.59;;;5.08;77.07
19594;BME280;9944;48.240;16.478;2024-03-08T10:44:40;100096.84;;;5.14;77.19
19594;BME280;9944;48.240;16.478;2024-03-08T10:48:49;100096.94;;;5.19;76.97
19594;BME280;9944;48.240;16.478;2024-03-08T10:52:52;100093.50;;;5.20;76.87
19594;BME280;9944;48.240;16.478;2024-03-08T10:56:59;100089.97;;;5.18;76.91
19594;BME280;9944;48.240;16.478;2024-03-08T11:01:03;100084.06;;;5.26;76.47
19594;BME280;9944;48.240;16.478;2024-03-08T11:05:15;100079.50;;;5.18;76.26
19594;BME280;9944;48.240;16.478;2024-03-08T11:09:36;100077.66;;;5.13;76.00
19594;BME280;9944;48.240;16.478;2024-03-08T11:13:41;100074.09;;;5.11;76.66
19594;BME280;9944;48.240;16.478;2024-03-08T11:17:46;100068.22;;;5.22;77.12
19594;BME280;9944;48.240;16.478;2024-03-08T11:21:59;100064.06;;;5.30;76.54
19594;BME280;9944;48.240;16.478;2024-03-08T11:26:03;100062.25;;;5.26;76.16
19594;BME280;9944;48.240;16.478;2024-03-08T11:30:10;100061.38;;;5.27;76.16
19594;BME280;9944;48.240;16.478;2024-03-08T11:34:19;100059.72;;;5.32;75.76
19594;BME280;9944;48.240;16.478;2024-03-08T11:38:24;100056.22;;;5.30;75.71
19594;BME280;9944;48.240;16.478;2024-03-08T11:42:27;100046.66;;;5.32;75.77
19594;BME280;9944;48.240;16.478;2024-03-08T11:46:31;100049.34;;;5.35;75.79
19594;BME280;9944;48.240;16.478;2024-03-08T11:50:35;100036.25;;;5.35;75.09
19594;BME280;9944;48.240;16.478;2024-03-08T11:54:41;100036.25;;;5.35;75.33
19594;BME280;9944;48.240;16.478;2024-03-08T11:58:53;100032.00;;;5.40;74.36
19594;BME280;9944;48.240;16.478;2024-03-08T12:03:03;100039.84;;;5.40;74.34
19594;BME280;9944;48.240;16.478;2024-03-08T12:07:10;100033.75;;;5.41;73.48
19594;BME280;9944;48.240;16.478;2024-03-08T12:11:16;100026.75;;;5.40;73.90
19594;BME280;9944;48.240;16.478;2024-03-08T12:15:22;100025.88;;;5.41;73.70
19594;BME280;9944;48.240;16.478;2024-03-08T12:19:25;100019.84;;;5.44;73.73
19594;BME280;9944;48.240;16.478;2024-03-08T12:23:29;100012.13;;;5.51;73.62
19594;BME280;9944;48.240;16.478;2024-03-08T12:27:34;100017.50;;;5.58;73.37
19594;BME280;9944;48.240;16.478;2024-03-08T12:31:39;100010.66;;;5.64;73.25
19594;BME280;9944;48.240;16.478;2024-03-08T12:35:58;100008.13;;;5.69;72.95
19594;BME280;9944;48.240;16.478;2024-03-08T12:40:07;100008.22;;;5.73;72.78
19594;BME280;9944;48.240;16.478;2024-03-08T12:44:23;99998.72;;;5.79;71.92
19594;BME280;9944;48.240;16.478;2024-03-08T12:48:27;99996.13;;;5.80;72.11
19594;BME280;9944;48.240;16.478;2024-03-08T12:52:31;100001.50;;;5.88;72.25
19594;BME280;9944;48.240;16.478;2024-03-08T12:56:36;99999.81;;;5.90;71.34
19594;BME280;9944;48.240;16.478;2024-03-08T13:00:41;99992.91;;;5.95;71.93
19594;BME280;9944;48.240;16.478;2024-03-08T13:04:45;99988.69;;;6.05;71.42
19594;BME280;9944;48.240;16.478;2024-03-08T13:08:53;99984.47;;;6.13;70.88
19594;BME280;9944;48.240;16.478;2024-03-08T13:12:57;99974.97;;;6.18;70.16
19594;BME280;9944;48.240;16.478;2024-03-08T13:17:02;99978.38;;;6.14;69.56
19594;BME280;9944;48.240;16.478;2024-03-08T13:21:06;99974.84;;;6.12;69.53
19594;BME280;9944;48.240;16.478;2024-03-08T13:25:10;99970.56;;;6.17;69.49
19594;BME280;9944;48.240;16.478;2024-03-08T13:29:15;99963.59;;;6.18;69.33
19594;BME280;9944;48.240;16.478;2024-03-08T13:33:22;99958.25;;;6.11;68.99
19594;BME280;9944;48.240;16.478;2024-03-08T13:37:25;99956.50;;;6.12;69.14
19594;BME280;9944;48.240;16.478;2024-03-08T13:41:28;99957.53;;;6.20;69.30
19594;BME280;9944;48.240;16.478;2024-03-08T13:45:34;99947.97;;;6.24;68.83
19594;BME280;9944;48.240;16.478;2024-03-08T13:49:44;99950.56;;;6.22;68.29
19594;BME280;9944;48.240;16.478;2024-03-08T13:53:50;99947.09;;;6.23;68.70
19594;BME280;9944;48.240;16.478;2024-03-08T13:57:57;99937.59;;;6.30;68.89
19594;BME280;9944;48.240;16.478;2024-03-08T14:02:41;99938.50;;;6.32;68.71
19594;BME280;9944;48.240;16.478;2024-03-08T14:06:46;99929.84;;;6.38;68.78
19594;BME280;9944;48.240;16.478;2024-03-08T14:10:50;99932.59;;;6.44;68.71
19594;BME280;9944;48.240;16.478;2024-03-08T14:14:55;99924.63;;;6.41;68.19
19594;BME280;9944;48.240;16.478;2024-03-08T14:19:01;99918.47;;;6.37;68.56
19594;BME280;9944;48.240;16.478;2024-03-08T14:23:09;99915.88;;;6.39;68.53
19594;BME280;9944;48.240;16.478;2024-03-08T14:27:14;99907.13;;;6.37;68.63
19594;BME280;9944;48.240;16.478;2024-03-08T14:31:20;99909.72;;;6.35;68.71
19594;BME280;9944;48.240;16.478;2024-03-08T14:35:27;99900.97;;;6.36;68.72
19594;BME280;9944;48.240;16.478;2024-03-08T14:39:32;99900.03;;;6.33;68.34
19594;BME280;9944;48.240;16.478;2024-03-08T14:49:50;99889.59;;;6.36;68.68
19594;BME280;9944;48.240;16.478;2024-03-08T14:53:54;99887.81;;;6.35;68.45
19594;BME280;9944;48.240;16.478;2024-03-08T14:57:58;99885.16;;;6.30;68.29
19594;BME280;9944;48.240;16.478;2024-03-08T15:02:02;99876.47;;;6.34;68.48
19594;BME280;9944;48.240;16.478;2024-03-08T15:06:09;99873.84;;;6.34;68.25
19594;BME280;9944;48.240;16.478;2024-03-08T15:10:13;99878.25;;;6.35;68.36
19594;BME280;9944;48.240;16.478;2024-03-08T15:14:19;99874.81;;;6.41;68.31
19594;BME280;9944;48.240;16.478;2024-03-08T15:18:23;99868.84;;;6.48;68.52
19594;BME280;9944;48.240;16.478;2024-03-08T15:22:36;99871.47;;;6.50;67.76
19594;BME280;9944;48.240;16.478;2024-03-08T15:26:41;99864.50;;;6.52;67.10
19594;BME280;9944;48.240;16.478;2024-03-08T15:30:46;99881.09;;;6.49;66.22
19594;BME280;9944;48.240;16.478;2024-03-08T15:34:55;99873.94;;;6.42;65.86
19594;BME280;9944;48.240;16.478;2024-03-08T15:38:59;99874.81;;;6.41;65.93
19594;BME280;9944;48.240;16.478;2024-03-08T15:43:03;99871.38;;;6.43;66.33
19594;BME280;9944;48.240;16.478;2024-03-08T15:47:08;99873.03;;;6.38;65.87
19594;BME280;9944;48.240;16.478;2024-03-08T15:51:13;99867.72;;;6.32;65.83
19594;BME280;9944;48.240;16.478;2024-03-08T15:55:18;99866.84;;;6.32;65.54
19594;BME280;9944;48.240;16.478;2024-03-08T15:59:23;99863.25;;;6.25;65.44
19594;BME280;9944;48.240;16.478;2024-03-08T16:03:30;99858.72;;;6.15;65.73
19594;BME280;9944;48.240;16.478;2024-03-08T16:07:34;99864.81;;;6.15;66.05
19594;BME280;9944;48.240;16.478;2024-03-08T16:11:37;99863.03;;;6.14;65.73
19594;BME280;9944;48.240;16.478;2024-03-08T16:15:42;99859.44;;;6.06;66.03
19594;BME280;9944;48.240;16.478;2024-03-08T16:19:51;99863.75;;;6.01;66.34
19594;BME280;9944;48.240;16.478;2024-03-08T16:23:58;99866.25;;;5.95;66.51
19594;BME280;9944;48.240;16.478;2024-03-08T16:28:02;99857.44;;;5.89;66.66
19594;BME280;9944;48.240;16.478;2024-03-08T16:32:07;99854.75;;;5.85;67.14
19594;BME280;9944;48.240;16.478;2024-03-08T16:36:11;99852.06;;;5.80;67.25
19594;BME280;9944;48.240;16.478;2024-03-08T16:40:16;99858.94;;;5.75;67.18
19594;BME280;9944;48.240;16.478;2024-03-08T16:44:19;99860.59;;;5.68;67.61
19594;BME280;9944;48.240;16.478;2024-03-08T16:48:23;99857.03;;;5.65;67.60
19594;BME280;9944;48.240;16.478;2024-03-08T16:52:28;99843.84;;;5.59;67.86
19594;BME280;9944;48.240;16.478;2024-03-08T16:56:32;99845.50;;;5.55;68.33
19594;BME280;9944;48.240;16.478;2024-03-08T17:00:51;99848.91;;;5.49;68.63
19594;BME280;9944;48.240;16.478;2024-03-08T17:04:55;99847.19;;;5.51;68.97
19594;BME280;9944;48.240;16.478;2024-03-08T17:09:00;99842.69;;;5.44;69.20
19594;BME280;9944;48.240;16.478;2024-03-08T17:13:04;99836.50;;;5.39;69.67
19594;BME280;9944;48.240;16.478;2024-03-08T17:17:07;99840.00;;;5.38;69.77
19594;BME280;9944;48.240;16.478;2024-03-08T17:21:11;99841.72;;;5.38;69.65
19594;BME280;9944;48.240;16.478;2024-03-08T17:25:17;99836.41;;;5.33;70.08
19594;BME280;9944;48.240;16.478;2024-03-08T17:29:23;99840.75;;;5.31;69.82
19594;BME280;9944;48.240;16.478;2024-03-08T17:33:27;99838.09;;;5.29;70.06
19594;BME280;9944;48.240;16.478;2024-03-08T17:38:05;99845.00;;;5.27;69.97
19594;BME280;9944;48.240;16.478;2024-03-08T17:42:13;99838.91;;;5.27;70.30
19594;BME280;9944;48.240;16.478;2024-03-08T17:46:17;99828.41;;;5.25;70.23
19594;BME280;9944;48.240;16.478;2024-03-08T17:50:21;99825.66;;;5.18;70.41
19594;BME280;9944;48.240;16.478;2024-03-08T17:54:26;99827.38;;;5.15;70.76
19594;BME280;9944;48.240;16.478;2024-03-08T17:58:31;99819.47;;;5.12;70.96
19594;BME280;9944;48.240;16.478;2024-03-08T18:02:35;99826.34;;;5.07;71.23
19594;BME280;9944;48.240;16.478;2024-03-08T18:06:39;99832.34;;;5.02;71.16
19594;BME280;9944;48.240;16.478;2024-03-08T18:10:44;99830.53;;;4.99;71.55
19594;BME280;9944;48.240;16.478;2024-03-08T18:14:52;99832.28;;;4.98;71.75
19594;BME280;9944;48.240;16.478;2024-03-08T18:18:55;99837.41;;;4.94;71.52
19594;BME280;9944;48.240;16.478;2024-03-08T18:22:59;99831.28;;;4.92;71.86
19594;BME280;9944;48.240;16.478;2024-03-08T18:27:04;99827.75;;;4.90;71.79
19594;BME280;9944;48.240;16.478;2024-03-08T18:31:09;99819.06;;;4.92;71.90
19594;BME280;9944;48.240;16.478;2024-03-08T18:35:14;99819.97;;;4.93;72.04
19594;BME280;9944;48.240;16.478;2024-03-08T18:39:18;99820.72;;;4.87;72.23
19594;BME280;9944;48.240;16.478;2024-03-08T18:43:27;99819.81;;;4.85;72.40
19594;BME280;9944;48.240;16.478;2024-03-08T18:47:31;99812.78;;;4.83;72.78
19594;BME280;9944;48.240;16.478;2024-03-08T18:51:36;99819.72;;;4.81;72.74
19594;BME280;9944;48.240;16.478;2024-03-08T18:55:39;99814.41;;;4.76;72.58
19594;BME280;9944;48.240;16.478;2024-03-08T18:59:45;99810.88;;;4.74;72.75
19594;BME280;9944;48.240;16.478;2024-03-08T19:03:52;99809.94;;;4.70;72.79
19594;BME280;9944;48.240;16.478;2024-03-08T19:07:55;99815.94;;;4.66;72.92
19594;BME280;9944;48.240;16.478;2024-03-08T19:11:59;99810.66;;;4.63;73.51
19594;BME280;9944;48.240;16.478;2024-03-08T19:16:07;99802.75;;;4.60;73.29
19594;BME280;9944;48.240;16.478;2024-03-08T19:20:17;99800.97;;;4.59;73.58
19594;BME280;9944;48.240;16.478;2024-03-08T19:24:21;99800.97;;;4.59;73.80
19594;BME280;9944;48.240;16.478;2024-03-08T19:28:24;99795.81;;;4.62;74.17
19594;BME280;9944;48.240;16.478;2024-03-08T19:32:28;99798.41;;;4.60;74.09
19594;BME280;9944;48.240;16.478;2024-03-08T19:36:32;99793.16;;;4.60;74.32
19594;BME280;9944;48.240;16.478;2024-03-08T19:40:36;99794.13;;;4.64;74.68
19594;BME280;9944;48.240;16.478;2024-03-08T19:44:43;99783.66;;;4.64;74.78
19594;BME280;9944;48.240;16.478;2024-03-08T19:48:50;99784.53;;;4.65;75.15
19594;BME280;9944;48.240;16.478;2024-03-08T19:52:57;99781.91;;;4.65;75.24
19594;BME280;9944;48.240;16.478;2024-03-08T19:57:06;99780.19;;;4.65;75.61
19594;BME280;9944;48.240;16.478;2024-03-08T20:01:09;99776.78;;;4.69;75.71
19594;BME280;9944;48.240;16.478;2024-03-08T20:05:17;99779.44;;;4.71;75.88
19594;BME280;9944;48.240;16.478;2024-03-08T20:09:24;99773.38;;;4.73;75.94
19594;BME280;9944;48.240;16.478;2024-03-08T20:13:28;99769.91;;;4.74;76.07
19594;BME280;9944;48.240;16.478;2024-03-08T20:17:31;99769.06;;;4.75;76.29
19594;BME280;9944;48.240;16.478;2024-03-08T20:21:35;99776.91;;;4.77;76.25
19594;BME280;9944;48.240;16.478;2024-03-08T20:25:39;99772.59;;;4.77;76.53
19594;BME280;9944;48.240;16.478;2024-03-08T20:29:47;99772.63;;;4.79;76.56
19594;BME280;9944;48.240;16.478;2024-03-08T20:34:15;99770.03;;;4.81;76.45
19594;BME280;9944;48.240;16.478;2024-03-08T20:38:20;99769.19;;;4.83;77.01
19594;BME280;9944;48.240;16.478;2024-03-08T20:42:25;99758.69;;;4.80;76.90
19594;BME280;9944;48.240;16.478;2024-03-08T20:46:29;99763.94;;;4.82;76.94
19594;BME280;9944;48.240;16.478;2024-03-08T20:50:33;99756.09;;;4.82;77.15
19594;BME280;9944;48.240;16.478;2024-03-08T20:54:38;99752.56;;;4.79;77.26
19594;BME280;9944;48.240;16.478;2024-03-08T20:58:43;99750.84;;;4.80;77.05
19594;BME280;9944;48.240;16.478;2024-03-08T21:02:48;99750.88;;;4.82;77.34
19594;BME280;9944;48.240;16.478;2024-03-08T21:06:52;99751.81;;;4.85;77.24
19594;BME280;9944;48.240;16.478;2024-03-08T21:10:56;99753.59;;;4.88;77.44
19594;BME280;9944;48.240;16.478;2024-03-08T21:15:01;99747.47;;;4.86;77.29
19594;BME280;9944;48.240;16.478;2024-03-08T21:19:09;99737.00;;;4.86;77.04
19594;BME280;9944;48.240;16.478;2024-03-08T21:23:12;99737.88;;;4.86;76.83
19594;BME280;9944;48.240;16.478;2024-03-08T21:27:17;99733.44;;;4.81;76.78
19594;BME280;9944;48.240;16.478;2024-03-08T21:31:21;99727.22;;;4.77;76.87
19594;BME280;9944;48.240;16.478;2024-03-08T21:35:25;99722.91;;;4.77;76.92
19594;BME280;9944;48.240;16.478;2024-03-08T21:39:31;99718.47;;;4.75;77.20
19594;BME280;9944;48.240;16.478;2024-03-08T21:43:35;99720.19;;;4.73;77.31
19594;BME280;9944;48.240;16.478;2024-03-08T21:47:40;99715.81;;;4.70;77.45
19594;BME280;9944;48.240;16.478;2024-03-08T21:51:43;99717.53;;;4.71;77.72
19594;BME280;9944;48.240;16.478;2024-03-08T21:55:49;99714.16;;;4.75;77.60
19594;BME280;9944;48.240;16.478;2024-03-08T21:59:52;99708.03;;;4.75;77.89
19594;BME280;9944;48.240;16.478;2024-03-08T22:03:58;99708.88;;;4.72;78.21